Time;durP1;ratioP1;P1;durP2;ratioP2;P2;SDS_P1;SDS_P2;PMS_P1;PMS_P2;Temp;Humidity;BMP_temperature;BMP_pressure;BME280_temperature;BME280_humidity;BME280_pressure;Samples;Min_cycle;Max_cycle;Signal;HPM_P1;HPM_P2
2023/09/01 00:00:46;;;;;;;4.35;3.13;;;13.00;99.90;;;;;;5027524;28;20033;-62
2023/09/01 00:03:13;;;;;;;4.68;2.83;;;13.00;99.90;;;;;;5024247;28;20083;-61
2023/09/01 00:05:38;;;;;;;9.90;3.13;;;13.00;99.90;;;;;;5025647;28;20096;-61
2023/09/01 00:08:05;;;;;;;4.32;3.08;;;13.00;99.90;;;;;;5024758;28;20057;-62
2023/09/01 00:10:31;;;;;;;5.78;2.95;;;13.10;99.90;;;;;;5028199;28;20420;-61
2023/09/01 00:12:57;;;;;;;4.95;3.05;;;13.10;99.90;;;;;;5027622;28;20033;-61
2023/09/01 00:15:23;;;;;;;4.13;3.00;;;13.10;99.90;;;;;;5027079;28;20034;-61
2023/09/01 00:17:49;;;;;;;3.88;2.88;;;13.20;99.90;;;;;;5025620;28;20030;-62
2023/09/01 00:20:15;;;;;;;2.97;2.58;;;13.20;99.90;;;;;;5021629;28;20045;-60
2023/09/01 00:22:40;;;;;;;4.20;3.30;;;13.20;99.90;;;;;;5025936;28;20040;-59
2023/09/01 00:25:07;;;;;;;5.95;2.72;;;13.20;99.90;;;;;;5026855;28;20022;-59
2023/09/01 00:27:32;;;;;;;11.30;3.40;;;13.20;99.90;;;;;;5026034;28;20335;-60
2023/09/01 00:29:58;;;;;;;5.88;3.40;;;13.30;99.90;;;;;;5031126;28;20167;-60
2023/09/01 00:32:23;;;;;;;10.10;3.25;;;13.30;99.90;;;;;;5025341;28;20061;-60
2023/09/01 00:34:56;;;;;;;5.10;3.42;;;13.30;99.90;;;;;;5032662;28;20037;-60
2023/09/01 00:37:22;;;;;;;4.05;2.72;;;13.30;99.90;;;;;;5023024;28;20142;-60
2023/09/01 00:39:48;;;;;;;6.05;2.95;;;13.20;99.90;;;;;;5024776;28;20125;-60
2023/09/01 00:42:13;;;;;;;5.65;3.25;;;13.30;99.90;;;;;;5030534;28;20032;-59
2023/09/01 00:44:39;;;;;;;7.10;2.80;;;13.20;99.90;;;;;;5031803;28;20017;-61
2023/09/01 00:47:05;;;;;;;6.80;3.28;;;13.20;99.90;;;;;;5029590;28;20030;-59
2023/09/01 00:49:31;;;;;;;4.63;2.65;;;13.20;99.90;;;;;;5029255;28;20034;-60
2023/09/01 00:51:57;;;;;;;3.22;2.40;;;13.20;99.90;;;;;;5019251;28;20042;-59
2023/09/01 00:54:23;;;;;;;4.28;3.17;;;13.20;99.90;;;;;;5023951;28;20033;-59
2023/09/01 00:56:51;;;;;;;8.38;2.97;;;13.20;99.90;;;;;;5023570;28;20040;-60
2023/09/01 00:59:17;;;;;;;5.55;3.08;;;13.20;99.90;;;;;;5023432;28;20033;-60
2023/09/01 01:01:44;;;;;;;4.45;3.58;;;13.20;99.90;;;;;;5023535;28;20195;-59
2023/09/01 01:04:11;;;;;;;4.82;3.17;;;13.20;99.90;;;;;;5024967;28;20411;-59
2023/09/01 01:06:55;;;;;;;4.28;3.38;;;13.20;99.90;;;;;;5032505;28;20113;-60
2023/09/01 01:09:55;;;;;;;3.72;3.05;;;13.20;99.90;;;;;;5024100;28;20389;-59
2023/09/01 01:12:35;;;;;;;4.90;3.13;;;13.20;99.90;;;;;;5025456;28;20473;-59
2023/09/01 01:15:09;;;;;;;7.10;2.83;;;13.20;99.90;;;;;;5027126;28;20041;-59
2023/09/01 01:17:38;;;;;;;3.72;3.25;;;13.20;99.90;;;;;;5010114;28;20029;-59
2023/09/01 01:20:14;;;;;;;4.90;2.97;;;13.20;99.90;;;;;;5022665;28;20042;-59
2023/09/01 01:22:49;;;;;;;5.40;2.63;;;13.20;99.90;;;;;;5021994;28;20034;-60
2023/09/01 01:25:15;;;;;;;6.25;3.15;;;13.30;99.90;;;;;;5023692;28;20021;-59
2023/09/01 01:27:42;;;;;;;4.28;2.53;;;13.30;99.90;;;;;;5025525;28;20029;-59
2023/09/01 01:30:15;;;;;;;22.13;3.72;;;13.30;99.90;;;;;;5029674;28;20026;-58
2023/09/01 01:32:42;;;;;;;6.10;3.22;;;13.30;99.90;;;;;;5029028;28;20050;-59
2023/09/01 01:35:32;;;;;;;3.33;2.67;;;13.40;99.90;;;;;;5029379;28;20040;-60
2023/09/01 01:38:28;;;;;;;740.47;117.07;;;13.40;99.90;;;;;;5025989;28;20030;-61
2023/09/01 01:41:09;;;;;;;61.70;12.23;;;13.40;99.90;;;;;;5012681;28;20460;-60
2023/09/01 01:43:36;;;;;;;98.68;48.28;;;13.40;99.90;;;;;;5032406;28;20036;-60
2023/09/01 01:46:02;;;;;;;258.67;45.92;;;13.40;99.90;;;;;;5031500;28;20041;-59
2023/09/01 01:48:28;;;;;;;4.57;2.30;;;13.40;99.90;;;;;;5023229;28;20654;-60
2023/09/01 01:50:55;;;;;;;1999.90;999.90;;;13.50;99.90;;;;;;5025127;28;20037;-60
2023/09/01 01:53:22;;;;;;;1999.90;999.90;;;13.50;99.90;;;;;;5023564;28;20037;-59
2023/09/01 01:55:48;;;;;;;1999.90;999.90;;;13.50;99.90;;;;;;5029342;28;20508;-59
2023/09/01 01:58:14;;;;;;;1999.90;999.90;;;13.50;99.90;;;;;;5027710;28;20026;-59
2023/09/01 02:00:39;;;;;;;1999.90;999.90;;;13.50;99.90;;;;;;5030211;28;20037;-60
2023/09/01 02:03:05;;;;;;;1999.90;999.90;;;13.50;99.90;;;;;;5032898;28;20028;-60
2023/09/01 02:05:32;;;;;;;1999.90;999.90;;;13.50;99.90;;;;;;5027731;28;20056;-60
2023/09/01 02:07:57;;;;;;;1999.90;999.90;;;13.50;99.90;;;;;;5034870;28;20037;-60
2023/09/01 02:10:23;;;;;;;1999.90;999.90;;;13.50;99.90;;;;;;5034301;28;20385;-59
2023/09/01 02:12:49;;;;;;;1999.90;999.90;;;13.50;99.90;;;;;;5030416;28;20551;-58
2023/09/01 02:15:14;;;;;;;1999.90;999.90;;;13.60;99.90;;;;;;5018715;28;20025;-59
2023/09/01 02:17:40;;;;;;;1999.90;999.90;;;13.60;99.90;;;;;;5017278;28;20026;-59
2023/09/01 02:20:16;;;;;;;1999.90;999.90;;;13.60;99.90;;;;;;5018469;28;20065;-60
2023/09/01 02:22:45;;;;;;;75.97;35.90;;;13.60;99.90;;;;;;5025274;28;20029;-61
2023/09/01 02:25:14;;;;;;;1.02;0.90;;;13.60;99.90;;;;;;5021448;28;20033;-59
2023/09/01 02:27:41;;;;;;;1.05;1.05;;;13.60;99.90;;;;;;5027280;28;20060;-60
2023/09/01 02:30:08;;;;;;;1.13;1.13;;;13.60;99.90;;;;;;5027990;28;20056;-59
2023/09/01 02:32:34;;;;;;;1.45;1.08;;;13.60;99.90;;;;;;5023602;28;20072;-60
2023/09/01 02:35:00;;;;;;;4.68;1.02;;;13.50;99.90;;;;;;5021094;28;20033;-58
2023/09/01 02:37:26;;;;;;;1.88;1.27;;;13.40;99.90;;;;;;5022797;28;20047;-60
2023/09/01 02:39:52;;;;;;;4.38;1.27;;;13.40;99.90;;;;;;5027262;28;20493;-60
2023/09/01 02:42:18;;;;;;;271.75;41.15;;;13.40;99.90;;;;;;5026086;28;20040;-60
2023/09/01 02:44:43;;;;;;;86.03;10.95;;;13.40;99.90;;;;;;5027759;28;20045;-59
2023/09/01 02:47:09;;;;;;;1999.90;999.90;;;13.30;99.90;;;;;;5025385;28;20053;-59
2023/09/01 02:49:34;;;;;;;1999.90;999.90;;;13.30;99.90;;;;;;5024176;28;20465;-60
2023/09/01 02:52:01;;;;;;;246.52;30.48;;;13.30;99.90;;;;;;5021745;28;20132;-60
2023/09/01 02:54:27;;;;;;;160.05;15.35;;;13.30;99.90;;;;;;5027289;28;20022;-60
2023/09/01 02:56:53;;;;;;;694.45;324.67;;;13.30;99.90;;;;;;5025668;28;20072;-58
2023/09/01 02:59:18;;;;;;;3.60;3.00;;;13.30;99.90;;;;;;5029888;28;20056;-60
2023/09/01 03:01:44;;;;;;;1999.90;999.90;;;13.30;99.90;;;;;;5023967;28;20132;-59
2023/09/01 03:04:10;;;;;;;8.48;7.95;;;13.30;99.90;;;;;;5027831;28;20045;-59
2023/09/01 03:06:35;;;;;;;4.47;2.78;;;13.30;99.90;;;;;;5024345;28;20018;-60
2023/09/01 03:09:02;;;;;;;6.13;3.00;;;13.20;99.90;;;;;;5025704;28;20025;-59
2023/09/01 03:11:28;;;;;;;3.28;2.63;;;13.20;99.90;;;;;;5029899;28;20162;-60
2023/09/01 03:13:54;;;;;;;8.07;4.05;;;13.20;99.90;;;;;;5027889;28;20065;-60
2023/09/01 03:16:19;;;;;;;3.78;2.80;;;13.20;99.90;;;;;;5026587;28;20068;-60
2023/09/01 03:18:45;;;;;;;238.10;83.88;;;13.20;99.90;;;;;;5029929;28;20046;-59
2023/09/01 03:21:12;;;;;;;1999.90;999.90;;;13.20;99.90;;;;;;5024174;28;20032;-60
2023/09/01 03:23:38;;;;;;;7.70;4.35;;;13.20;99.90;;;;;;5027691;28;20588;-60
2023/09/01 03:26:05;;;;;;;7.35;6.85;;;13.20;99.90;;;;;;5021680;28;20021;-60
2023/09/01 03:28:31;;;;;;;1999.90;999.90;;;13.20;99.90;;;;;;5021688;28;20022;-60
2023/09/01 03:30:57;;;;;;;1999.90;999.90;;;13.20;99.90;;;;;;5023597;28;20033;-60
2023/09/01 03:33:23;;;;;;;1999.90;999.90;;;13.20;99.90;;;;;;5022933;28;20052;-60
2023/09/01 03:35:49;;;;;;;1999.90;999.90;;;13.10;99.90;;;;;;5015244;28;20059;-60
2023/09/01 03:38:15;;;;;;;1999.90;999.90;;;13.10;99.90;;;;;;5025813;28;20030;-60
2023/09/01 03:40:41;;;;;;;1999.90;999.90;;;13.10;99.90;;;;;;5025510;28;20064;-61
2023/09/01 03:43:09;;;;;;;1999.90;999.90;;;13.10;99.90;;;;;;5025703;28;20068;-60
2023/09/01 03:45:35;;;;;;;1999.90;999.90;;;13.10;99.90;;;;;;5023955;28;20116;-61
2023/09/01 03:48:01;;;;;;;1999.90;999.90;;;13.10;99.90;;;;;;5027201;28;20113;-61
2023/09/01 03:50:26;;;;;;;1999.90;999.90;;;13.10;99.90;;;;;;5025513;28;20053;-59
2023/09/01 03:52:52;;;;;;;1999.90;999.90;;;13.00;99.90;;;;;;5024974;28;20025;-60
2023/09/01 03:55:18;;;;;;;1999.90;999.90;;;13.10;99.90;;;;;;5024648;28;20030;-60
2023/09/01 03:57:44;;;;;;;103.95;98.53;;;13.10;99.90;;;;;;5026588;28;20117;-60
2023/09/01 04:00:11;;;;;;;153.93;146.07;;;13.10;99.90;;;;;;5029177;28;20049;-60
2023/09/01 04:02:37;;;;;;;1999.90;999.90;;;13.10;99.90;;;;;;5025835;28;20161;-60
2023/09/01 04:05:03;;;;;;;1999.90;999.90;;;13.10;99.90;;;;;;5028059;28;20509;-59
2023/09/01 04:07:29;;;;;;;9.13;4.88;;;13.00;99.90;;;;;;5028229;28;20104;-61
2023/09/01 04:09:56;;;;;;;1999.90;999.90;;;13.00;99.90;;;;;;5028001;28;20151;-60
2023/09/01 04:12:22;;;;;;;1999.90;999.90;;;13.00;99.90;;;;;;5028121;28;20021;-60
2023/09/01 04:14:47;;;;;;;1999.90;999.90;;;13.00;99.90;;;;;;5028922;28;20022;-60
2023/09/01 04:17:13;;;;;;;1999.90;999.90;;;13.00;99.90;;;;;;5022211;28;20036;-60
2023/09/01 04:19:39;;;;;;;1999.90;999.90;;;13.00;99.90;;;;;;5021662;28;20041;-60
2023/09/01 04:22:04;;;;;;;351.02;96.22;;;13.00;99.90;;;;;;5019883;28;20099;-61
2023/09/01 04:24:31;;;;;;;1999.90;999.90;;;13.00;99.90;;;;;;5028098;28;20037;-60
2023/09/01 04:26:57;;;;;;;1999.90;999.90;;;13.00;99.90;;;;;;5025049;28;20127;-60
2023/09/01 04:29:23;;;;;;;1999.90;999.90;;;13.00;99.90;;;;;;5025261;28;20061;-59
2023/09/01 04:31:48;;;;;;;1999.90;999.90;;;13.10;99.90;;;;;;5023383;28;20030;-60
2023/09/01 04:34:14;;;;;;;1999.90;999.90;;;13.10;99.90;;;;;;5026501;28;20030;-60
2023/09/01 04:36:40;;;;;;;1999.90;999.90;;;13.10;99.90;;;;;;5029475;28;20076;-60
2023/09/01 04:39:05;;;;;;;5.55;4.72;;;13.10;99.90;;;;;;5030646;28;20534;-62
2023/09/01 04:41:34;;;;;;;1999.90;999.90;;;13.10;99.90;;;;;;5035557;28;20029;-61
2023/09/01 04:43:59;;;;;;;1999.90;999.90;;;13.10;99.90;;;;;;5016574;28;20045;-62
2023/09/01 04:46:25;;;;;;;1999.90;999.90;;;13.10;99.90;;;;;;5017007;28;20030;-61
2023/09/01 04:48:51;;;;;;;1999.90;999.90;;;13.10;99.90;;;;;;5021946;28;20026;-63
2023/09/01 04:51:16;;;;;;;1999.90;999.90;;;13.10;99.90;;;;;;5033987;28;20029;-62
2023/09/01 04:53:42;;;;;;;1999.90;999.90;;;13.20;99.90;;;;;;5025199;28;20018;-62
2023/09/01 04:56:07;;;;;;;1999.90;999.90;;;13.20;99.90;;;;;;5022049;28;20433;-61
2023/09/01 04:58:33;;;;;;;1999.90;999.90;;;13.20;99.90;;;;;;5024185;28;20022;-62
2023/09/01 05:00:59;;;;;;;1999.90;999.90;;;13.20;99.90;;;;;;5024908;28;20033;-57
2023/09/01 05:03:25;;;;;;;1999.90;999.90;;;13.20;99.90;;;;;;5025336;28;20021;-59
2023/09/01 05:05:51;;;;;;;1999.90;999.90;;;13.20;99.90;;;;;;5025886;28;20425;-60
2023/09/01 05:08:18;;;;;;;1999.90;999.90;;;13.30;99.90;;;;;;5027668;28;20029;-59
2023/09/01 05:10:43;;;;;;;1999.90;999.90;;;13.30;99.90;;;;;;5025343;28;20033;-60
2023/09/01 05:13:09;;;;;;;1999.90;999.90;;;13.30;99.90;;;;;;5026813;28;20029;-57
2023/09/01 05:15:35;;;;;;;1999.90;999.90;;;13.30;99.90;;;;;;5028113;28;20111;-59
2023/09/01 05:18:01;;;;;;;1999.90;999.90;;;13.30;99.90;;;;;;5027403;28;20147;-58
2023/09/01 05:20:26;;;;;;;1999.90;999.90;;;13.30;99.90;;;;;;5028767;28;20119;-59
2023/09/01 05:22:52;;;;;;;1999.90;999.90;;;13.30;99.90;;;;;;5026912;28;20029;-59
2023/09/01 05:25:18;;;;;;;1999.90;999.90;;;13.30;99.90;;;;;;5022846;28;20044;-57
2023/09/01 05:27:44;;;;;;;1999.90;999.90;;;13.40;99.90;;;;;;5025989;28;20035;-59
2023/09/01 05:30:10;;;;;;;1999.90;999.90;;;13.30;99.90;;;;;;5022579;28;20144;-60
2023/09/01 05:32:36;;;;;;;6.63;4.88;;;13.30;99.90;;;;;;5019988;28;20511;-58
2023/09/01 05:35:03;;;;;;;5.30;4.80;;;13.40;99.90;;;;;;5026490;28;20506;-58
2023/09/01 05:37:28;;;;;;;6.10;5.43;;;13.40;99.90;;;;;;5023435;28;20038;-59
2023/09/01 05:39:55;;;;;;;6.32;4.65;;;13.40;99.90;;;;;;5026081;28;20032;-59
2023/09/01 05:42:21;;;;;;;8.65;5.22;;;13.50;99.90;;;;;;5027715;28;20026;-59
2023/09/01 05:44:47;;;;;;;5.93;5.18;;;13.50;99.90;;;;;;5028417;28;20028;-57
2023/09/01 05:47:12;;;;;;;5.90;5.35;;;13.50;99.90;;;;;;5028806;28;20033;-59
2023/09/01 05:49:39;;;;;;;7.03;6.25;;;13.50;99.90;;;;;;5024216;28;20079;-60
2023/09/01 05:52:05;;;;;;;6.97;6.30;;;13.50;99.90;;;;;;5027836;28;20406;-59
2023/09/01 05:54:31;;;;;;;9.95;6.68;;;13.50;99.90;;;;;;5029347;28;20026;-59
2023/09/01 05:56:56;;;;;;;12.77;6.50;;;13.50;99.90;;;;;;5026766;28;20783;-58
2023/09/01 05:59:22;;;;;;;10.23;7.32;;;13.50;99.90;;;;;;5024302;28;20041;-60
2023/09/01 06:01:48;;;;;;;11.43;7.28;;;13.50;99.90;;;;;;5028894;28;20129;-58
2023/09/01 06:04:13;;;;;;;16.38;8.60;;;13.60;99.90;;;;;;5029485;28;20060;-58
2023/09/01 06:06:40;;;;;;;8.27;7.57;;;13.60;99.90;;;;;;5029395;28;20086;-59
2023/09/01 06:09:07;;;;;;;8.02;6.85;;;13.60;99.90;;;;;;5028448;28;20474;-58
2023/09/01 06:11:34;;;;;;;8.25;6.88;;;13.60;99.90;;;;;;5029511;28;20029;-59
2023/09/01 06:14:00;;;;;;;7.78;6.93;;;13.60;99.90;;;;;;5026448;28;20377;-59
2023/09/01 06:16:26;;;;;;;10.25;7.65;;;13.70;99.90;;;;;;5028396;28;20555;-59
2023/09/01 06:18:52;;;;;;;12.77;7.70;;;13.70;99.90;;;;;;5026487;28;20029;-59
2023/09/01 06:21:18;;;;;;;10.55;8.70;;;13.80;99.90;;;;;;5033296;28;20101;-58
2023/09/01 06:23:44;;;;;;;10.73;8.38;;;13.80;99.90;;;;;;5025369;28;20164;-60
2023/09/01 06:26:14;;;;;;;11.35;8.43;;;13.80;99.90;;;;;;5023966;28;20040;-58
2023/09/01 06:28:41;;;;;;;168.93;47.88;;;13.80;99.90;;;;;;5026481;28;20531;-58
2023/09/01 06:31:09;;;;;;;9.27;8.02;;;13.90;99.90;;;;;;5026075;28;20033;-59
2023/09/01 06:33:35;;;;;;;10.82;8.60;;;13.90;99.90;;;;;;5027779;28;20048;-59
2023/09/01 06:36:00;;;;;;;9.63;8.68;;;13.90;99.90;;;;;;5022378;28;20497;-60
2023/09/01 06:38:26;;;;;;;9.05;8.15;;;13.90;99.90;;;;;;5023618;28;20057;-59
2023/09/01 06:40:51;;;;;;;9.70;7.97;;;13.90;99.90;;;;;;5027254;28;20026;-59
2023/09/01 06:43:17;;;;;;;12.73;7.55;;;13.90;99.90;;;;;;5029759;28;20034;-58
2023/09/01 06:45:43;;;;;;;8.98;8.18;;;13.90;99.90;;;;;;5023217;28;20033;-59
2023/09/01 06:48:08;;;;;;;8.88;8.05;;;13.90;99.90;;;;;;5025775;28;20033;-59
2023/09/01 06:50:36;;;;;;;7.68;7.03;;;13.90;99.90;;;;;;5028812;28;20033;-58
2023/09/01 06:53:02;;;;;;;9.10;6.75;;;13.90;99.90;;;;;;5021685;28;20117;-58
2023/09/01 06:55:28;;;;;;;9.95;6.78;;;13.90;99.90;;;;;;5023776;28;20116;-60
2023/09/01 06:57:53;;;;;;;7.88;6.78;;;14.00;99.90;;;;;;5024090;28;20540;-59
2023/09/01 07:00:19;;;;;;;9.52;6.95;;;14.00;99.90;;;;;;5028207;28;20599;-57
2023/09/01 07:02:45;;;;;;;7.75;6.18;;;14.00;99.90;;;;;;5029131;28;20088;-59
2023/09/01 07:05:10;;;;;;;6.75;6.03;;;14.10;99.90;;;;;;5028390;28;20521;-58
2023/09/01 07:07:36;;;;;;;7.60;6.80;;;14.20;99.90;;;;;;5030148;28;20116;-56
2023/09/01 07:10:03;;;;;;;6.80;5.85;;;14.30;99.90;;;;;;5034904;28;20449;-58
2023/09/01 07:12:29;;;;;;;8.13;6.30;;;14.30;99.90;;;;;;5027615;28;20542;-59
2023/09/01 07:14:54;;;;;;;8.05;5.95;;;14.40;99.90;;;;;;5023474;28;20108;-60
2023/09/01 07:17:23;;;;;;;7.15;6.03;;;14.50;99.90;;;;;;5019569;28;20069;-60
2023/09/01 07:19:49;;;;;;;6.60;6.00;;;14.60;99.90;;;;;;5035347;28;20128;-57
2023/09/01 07:22:14;;;;;;;5.97;5.28;;;14.70;99.90;;;;;;5028116;28;20156;-58
2023/09/01 07:24:40;;;;;;;8.05;4.50;;;14.80;99.90;;;;;;5030254;28;20623;-59
2023/09/01 07:27:06;;;;;;;4.40;4.10;;;14.80;99.90;;;;;;5023636;28;20034;-57
2023/09/01 07:29:32;;;;;;;6.40;4.55;;;14.80;99.90;;;;;;5024015;28;20493;-61
2023/09/01 07:32:01;;;;;;;4.05;3.65;;;14.90;99.90;;;;;;5024958;28;20112;-61
2023/09/01 07:34:27;;;;;;;3.88;3.47;;;14.90;99.90;;;;;;5029776;28;20025;-60
2023/09/01 07:36:52;;;;;;;3.92;3.63;;;15.00;99.90;;;;;;5027291;28;20032;-58
2023/09/01 07:39:18;;;;;;;4.55;3.67;;;15.00;99.90;;;;;;5029849;28;20029;-58
2023/09/01 07:41:44;;;;;;;3.42;3.13;;;15.00;99.90;;;;;;5019851;28;20037;-57
2023/09/01 07:44:11;;;;;;;3.38;3.08;;;15.10;99.90;;;;;;5027296;28;20498;-57
2023/09/01 07:46:36;;;;;;;3.80;3.40;;;15.20;99.90;;;;;;5026440;28;20033;-59
2023/09/01 07:49:02;;;;;;;3.30;2.60;;;15.30;99.90;;;;;;5024476;28;20089;-60
2023/09/01 07:51:28;;;;;;;2.60;2.40;;;15.40;99.90;;;;;;5024582;28;20030;-60
2023/09/01 07:53:54;;;;;;;2.35;2.15;;;15.50;99.90;;;;;;5018299;28;20056;-59
2023/09/01 07:56:21;;;;;;;2.58;2.17;;;15.60;99.90;;;;;;5023507;28;20030;-58
2023/09/01 07:58:47;;;;;;;1.88;1.50;;;15.70;99.90;;;;;;5021827;28;20025;-60
2023/09/01 08:01:12;;;;;;;3.92;1.85;;;15.80;99.90;;;;;;5021046;28;20029;-60
2023/09/01 08:03:38;;;;;;;2.65;1.30;;;15.90;99.90;;;;;;5018742;28;20037;-61
2023/09/01 08:06:04;;;;;;;1.58;1.20;;;16.10;99.90;;;;;;5026945;28;20112;-58
2023/09/01 08:08:30;;;;;;;1.40;1.30;;;16.20;99.90;;;;;;5024080;28;20029;-59
2023/09/01 08:10:56;;;;;;;1.52;1.42;;;16.30;99.90;;;;;;5027533;28;20049;-60
2023/09/01 08:13:22;;;;;;;1.20;1.10;;;16.40;99.90;;;;;;5029769;28;20072;-59
2023/09/01 08:15:48;;;;;;;1.27;1.10;;;16.40;99.90;;;;;;5029712;28;20061;-58
2023/09/01 08:18:14;;;;;;;1.65;1.17;;;16.50;99.90;;;;;;5025206;28;20116;-62
2023/09/01 08:20:42;;;;;;;2.60;1.02;;;16.50;99.90;;;;;;5027076;28;20561;-60
2023/09/01 08:23:08;;;;;;;1.00;1.00;;;16.50;99.90;;;;;;5023978;28;20117;-61
2023/09/01 08:25:35;;;;;;;1.40;1.00;;;16.50;99.90;;;;;;5027375;28;20025;-57
2023/09/01 08:28:03;;;;;;;0.70;0.70;;;16.50;99.90;;;;;;5024798;28;20494;-61
2023/09/01 08:30:29;;;;;;;0.70;0.70;;;16.50;99.90;;;;;;5024234;28;20033;-61
2023/09/01 08:32:54;;;;;;;0.80;0.68;;;16.50;99.90;;;;;;5024772;28;20091;-59
2023/09/01 08:35:20;;;;;;;1.48;0.93;;;16.60;99.90;;;;;;5023131;28;20033;-61
2023/09/01 08:37:46;;;;;;;1.33;0.70;;;16.60;99.90;;;;;;5023034;28;20065;-58
2023/09/01 08:40:12;;;;;;;3.35;1.27;;;16.60;99.90;;;;;;5029606;28;20213;-60
2023/09/01 08:42:46;;;;;;;2.17;0.80;;;16.60;99.90;;;;;;5028358;28;20557;-62
2023/09/01 08:45:16;;;;;;;0.70;0.70;;;16.50;99.90;;;;;;5027897;28;20107;-58
2023/09/01 08:47:53;;;;;;;0.93;0.60;;;16.40;99.90;;;;;;5029535;28;20021;-59
2023/09/01 08:50:21;;;;;;;1.08;0.68;;;16.30;99.90;;;;;;5023962;28;20540;-59
2023/09/01 08:52:47;;;;;;;0.85;0.85;;;16.20;99.90;;;;;;5025963;28;20049;-58
2023/09/01 08:55:14;;;;;;;1.95;1.10;;;16.30;99.90;;;;;;5023254;28;20032;-59
2023/09/01 08:57:40;;;;;;;1.38;1.10;;;16.20;99.90;;;;;;5027023;28;20324;-57
2023/09/01 09:00:07;;;;;;;1.10;0.90;;;16.20;99.90;;;;;;5030915;28;20025;-60
2023/09/01 09:02:44;;;;;;;2.10;1.30;;;16.20;99.90;;;;;;5027197;28;20026;-58
2023/09/01 09:05:13;;;;;;;1.67;1.00;;;16.10;99.90;;;;;;5029416;28;20038;-61
2023/09/01 09:07:39;;;;;;;1.77;1.10;;;16.10;99.90;;;;;;5028492;28;20037;-59
2023/09/01 09:10:06;;;;;;;0.85;0.70;;;16.10;99.90;;;;;;5027368;28;20397;-58
2023/09/01 09:12:37;;;;;;;2.05;0.80;;;16.10;99.90;;;;;;5027373;28;20021;-59
2023/09/01 09:15:03;;;;;;;1.92;0.70;;;16.10;99.90;;;;;;5027328;28;20025;-59
2023/09/01 09:17:40;;;;;;;1.13;1.02;;;16.00;99.90;;;;;;5027463;28;20025;-58
2023/09/01 09:20:06;;;;;;;1.10;1.00;;;16.00;99.90;;;;;;5023772;28;20041;-57
2023/09/01 09:22:48;;;;;;;1.98;1.05;;;15.90;99.90;;;;;;5028063;28;20029;-59
2023/09/01 09:25:25;;;;;;;1.20;1.10;;;15.90;99.90;;;;;;5026937;28;20524;-58
2023/09/01 09:27:51;;;;;;;1.23;1.13;;;15.80;99.90;;;;;;5024819;28;20390;-58
2023/09/01 09:30:16;;;;;;;1.30;1.20;;;15.80;99.90;;;;;;5029211;28;20022;-59
2023/09/01 09:32:42;;;;;;;1.60;1.50;;;15.80;99.90;;;;;;5032906;28;20044;-57
2023/09/01 09:35:10;;;;;;;1.75;1.50;;;15.90;99.90;;;;;;5029997;28;20618;-59
2023/09/01 09:37:37;;;;;;;1.70;1.60;;;16.00;99.90;;;;;;5029101;28;20026;-58
2023/09/01 09:40:10;;;;;;;1.77;1.67;;;16.00;99.90;;;;;;5030302;28;20030;-58
2023/09/01 09:42:38;;;;;;;2.58;2.38;;;16.20;99.90;;;;;;5029889;28;20605;-59
2023/09/01 09:45:06;;;;;;;4.57;2.00;;;16.20;99.90;;;;;;5025221;28;20032;-58
2023/09/01 09:47:32;;;;;;;2.88;2.13;;;16.30;99.90;;;;;;5027602;28;20026;-58
2023/09/01 09:50:00;;;;;;;2.10;1.90;;;16.30;99.90;;;;;;5028401;28;20044;-59
2023/09/01 09:52:29;;;;;;;3.53;2.00;;;16.40;99.90;;;;;;5025883;28;20553;-61
2023/09/01 09:55:01;;;;;;;2.25;2.05;;;16.40;99.90;;;;;;5029171;28;20041;-61
2023/09/01 09:57:27;;;;;;;2.35;1.75;;;16.50;99.90;;;;;;5037301;28;20022;-61
2023/09/01 10:00:10;;;;;;;3.15;1.95;;;16.50;99.90;;;;;;5028115;28;20014;-60
2023/09/01 10:02:53;;;;;;;2.17;1.70;;;16.50;99.90;;;;;;5012296;28;20053;-61
2023/09/01 10:05:24;;;;;;;1.88;1.73;;;16.50;99.90;;;;;;5027062;28;20026;-59
2023/09/01 10:07:51;;;;;;;2.60;1.50;;;16.60;99.90;;;;;;5033223;28;20425;-61
2023/09/01 10:10:17;;;;;;;2.17;1.73;;;16.70;99.90;;;;;;5025876;28;20025;-60
2023/09/01 10:12:43;;;;;;;2.33;1.90;;;16.80;99.90;;;;;;5027764;28;20492;-61
2023/09/01 10:15:12;;;;;;;2.15;1.60;;;16.90;99.90;;;;;;5035461;28;20116;-60
2023/09/01 10:17:38;;;;;;;2.03;1.70;;;17.00;99.90;;;;;;5034050;28;20033;-62
2023/09/01 10:20:07;;;;;;;2.40;1.63;;;17.10;99.90;;;;;;5031490;28;20034;-61
2023/09/01 10:22:38;;;;;;;1.98;1.77;;;17.20;99.90;;;;;;5026752;28;20033;-61
2023/09/01 10:25:10;;;;;;;;;;;17.30;99.90;;;;;;5019149;28;20466;-61
2023/09/01 10:27:36;;;;;;;;;;;17.30;99.90;;;;;;5026099;28;19910;-59
2023/09/01 10:30:22;;;;;;;1.13;1.02;;;17.20;99.90;;;;;;5033458;28;19996;-60
2023/09/01 10:32:48;;;;;;;2.35;1.38;;;17.20;99.90;;;;;;5021672;28;20552;-60
2023/09/01 10:35:14;;;;;;;1.65;1.55;;;17.10;99.90;;;;;;5026577;28;20034;-61
2023/09/01 10:37:39;;;;;;;1.73;1.20;;;17.00;99.90;;;;;;5008542;28;20038;-60
2023/09/01 10:40:41;;;;;;;1.27;1.10;;;17.00;99.90;;;;;;5025774;28;20042;-60
2023/09/01 10:43:07;;;;;;;1.10;0.90;;;17.00;99.90;;;;;;5026411;28;20034;-60
2023/09/01 10:45:32;;;;;;;1.35;1.00;;;17.00;99.90;;;;;;5026266;28;20035;-61
2023/09/01 10:47:58;;;;;;;1.25;1.15;;;16.90;99.90;;;;;;5024580;28;20037;-60
2023/09/01 10:50:24;;;;;;;2.30;1.20;;;16.90;99.90;;;;;;5027811;28;20112;-61
2023/09/01 10:53:30;;;;;;;1.40;1.30;;;16.90;99.90;;;;;;5013215;28;20026;-60
2023/09/01 10:56:14;;;;;;;1.40;1.30;;;16.90;99.90;;;;;;5025008;28;20041;-60
2023/09/01 10:58:51;;;;;;;1.67;1.58;;;16.90;99.90;;;;;;5023403;28;20369;-59
2023/09/01 11:01:31;;;;;;;1.77;1.40;;;16.90;99.90;;;;;;5040102;28;20034;-60
2023/09/01 11:04:21;;;;;;;1.83;1.20;;;16.80;99.90;;;;;;5027908;28;20047;-60
2023/09/01 11:06:56;;;;;;;1.25;1.13;;;16.80;99.90;;;;;;5025151;28;20054;-61
2023/09/01 11:09:23;;;;;;;1.20;1.10;;;16.80;99.90;;;;;;5026480;28;20029;-60
2023/09/01 11:11:52;;;;;;;1.60;1.20;;;16.80;99.90;;;;;;5024794;28;20026;-60
2023/09/01 11:14:20;;;;;;;1.20;1.10;;;16.80;99.90;;;;;;5024905;28;20575;-60
2023/09/01 11:16:46;;;;;;;1.30;1.20;;;16.80;99.90;;;;;;5031593;28;20038;-60
2023/09/01 11:19:12;;;;;;;1.40;1.30;;;16.80;99.90;;;;;;5019063;28;20106;-60
2023/09/01 11:21:40;;;;;;;1.80;1.52;;;16.90;99.90;;;;;;5021887;28;20544;-61
2023/09/01 11:24:07;;;;;;;2.03;1.30;;;17.00;99.90;;;;;;5021722;28;20168;-61
2023/09/01 11:26:32;;;;;;;1.50;1.40;;;17.20;99.90;;;;;;5007499;28;20025;-59
2023/09/01 11:28:59;;;;;;;2.30;1.60;;;17.30;99.90;;;;;;5023237;28;20034;-61
2023/09/01 11:31:37;;;;;;;1.73;1.50;;;17.40;99.90;;;;;;5024370;28;20037;-60
2023/09/01 11:34:03;;;;;;;1.15;1.05;;;17.50;99.90;;;;;;5025328;28;20393;-61
2023/09/01 11:36:29;;;;;;;1.55;1.45;;;17.60;99.90;;;;;;5021796;28;20052;-60
2023/09/01 11:38:54;;;;;;;2.75;1.30;;;17.80;99.90;;;;;;5024940;28;20017;-60
2023/09/01 11:41:21;;;;;;;1.33;1.23;;;18.00;99.90;;;;;;5025366;28;20065;-58
2023/09/01 11:43:47;;;;;;;1.35;1.25;;;18.20;99.90;;;;;;5026438;28;20040;-59
2023/09/01 11:46:13;;;;;;;1.60;1.10;;;18.40;99.90;;;;;;5026158;28;20565;-59
2023/09/01 11:48:39;;;;;;;2.25;1.20;;;18.50;99.90;;;;;;5019922;28;20021;-58
2023/09/01 11:51:07;;;;;;;2.03;1.45;;;18.60;99.90;;;;;;5021708;28;20029;-59
2023/09/01 11:53:33;;;;;;;2.13;1.40;;;18.70;99.90;;;;;;5025298;28;20101;-59
2023/09/01 11:56:03;;;;;;;1.70;1.13;;;18.80;99.90;;;;;;5022730;28;20594;-60
2023/09/01 11:58:31;;;;;;;1.42;1.33;;;18.70;99.90;;;;;;5020821;28;20040;-59
2023/09/01 12:01:06;;;;;;;1.20;1.10;;;18.60;99.90;;;;;;5025552;28;20512;-58
2023/09/01 12:03:32;;;;;;;1.80;1.67;;;18.60;99.90;;;;;;5023392;28;20037;-60
2023/09/01 12:05:58;;;;;;;1999.90;999.90;;;18.60;99.90;;;;;;5025176;28;20108;-59
2023/09/01 12:08:25;;;;;;;1.02;1.00;;;18.60;99.90;;;;;;5025742;28;20035;-60
2023/09/01 12:11:04;;;;;;;1.52;1.02;;;18.60;99.90;;;;;;5023912;28;20469;-61
2023/09/01 12:13:31;;;;;;;1.40;1.08;;;18.80;99.90;;;;;;5024548;28;20057;-60
2023/09/01 12:16:04;;;;;;;1.15;1.05;;;18.90;99.90;;;;;;5023579;28;20041;-60
2023/09/01 12:18:40;;;;;;;1.75;1.10;;;19.10;99.90;;;;;;5030904;28;20061;-59
2023/09/01 12:21:08;;;;;;;1.30;1.20;;;19.20;99.90;;;;;;5025306;28;20037;-60
2023/09/01 12:23:37;;;;;;;1.33;1.08;;;19.20;99.90;;;;;;5022390;28;20104;-59
2023/09/01 12:26:03;;;;;;;1.00;1.00;;;19.40;99.90;;;;;;5025679;28;20497;-58
2023/09/01 12:28:31;;;;;;;1.27;1.00;;;19.40;99.90;;;;;;5023214;28;20026;-59
2023/09/01 12:31:00;;;;;;;1.13;1.05;;;19.30;99.90;;;;;;5027429;28;20525;-60
2023/09/01 12:33:26;;;;;;;1.00;1.00;;;19.30;99.90;;;;;;5025355;28;20026;-58
2023/09/01 12:35:52;;;;;;;1.00;1.00;;;19.20;99.90;;;;;;5027922;28;20028;-59
2023/09/01 12:38:18;;;;;;;1.27;1.17;;;19.20;99.90;;;;;;5031343;28;20049;-58